createdAt,value
2022-10-30T00:01:15.218Z,58.86
2022-10-30T00:03:42.478Z,58.93
2022-10-30T00:06:09.722Z,58.82
2022-10-30T00:08:37.242Z,58.84
2022-10-30T00:11:09.756Z,58.72
2022-10-30T00:13:38.081Z,58.90
2022-10-30T00:16:07.690Z,58.86
2022-10-30T00:18:36.858Z,58.94
2022-10-30T00:21:13.666Z,58.86
2022-10-30T00:23:49.589Z,58.80
2022-10-30T00:26:17.802Z,58.76
2022-10-30T00:28:49.047Z,58.75
2022-10-30T00:31:16.433Z,58.73
2022-10-30T00:33:43.726Z,58.74
2022-10-30T00:36:10.976Z,58.80
2022-10-30T00:38:38.228Z,58.81
2022-10-30T00:41:05.623Z,58.79
2022-10-30T00:43:39.057Z,58.81
2022-10-30T00:46:37.337Z,58.79
2022-10-30T00:49:16.641Z,58.71
2022-10-30T00:51:51.556Z,58.80
2022-10-30T00:54:20.312Z,58.73
2022-10-30T00:56:49.423Z,58.87
2022-10-30T00:59:23.114Z,58.72
2022-10-30T01:01:51.150Z,58.64
2022-10-30T01:04:19.803Z,58.81
2022-10-30T01:06:52.054Z,58.67
2022-10-30T01:09:20.387Z,58.57
2022-10-30T01:11:47.756Z,58.72
2022-10-30T01:14:19.714Z,58.59
2022-10-30T01:17:05.174Z,58.66
2022-10-30T01:19:59.342Z,58.69
2022-10-30T01:22:32.766Z,58.62
2022-10-30T01:25:39.912Z,58.58
2022-10-30T01:28:35.183Z,58.53
2022-10-30T01:31:09.267Z,58.44
2022-10-30T01:33:46.284Z,58.56
2022-10-30T01:36:26.230Z,58.40
2022-10-30T01:39:02.797Z,58.52
2022-10-30T01:41:30.209Z,58.40
2022-10-30T01:44:03.751Z,58.54
2022-10-30T01:47:15.699Z,58.50
2022-10-30T01:49:52.095Z,58.54
2022-10-30T01:52:42.553Z,58.46
2022-10-30T01:55:12.930Z,58.47
2022-10-30T01:58:02.807Z,58.44
2022-10-30T02:00:30.190Z,58.51
2022-10-30T02:02:58.002Z,58.44
2022-10-30T02:05:48.964Z,58.41
2022-10-30T02:08:19.650Z,58.49
2022-10-30T02:10:50.006Z,58.73
2022-10-30T02:13:17.644Z,58.98
2022-10-30T02:15:47.409Z,58.85
2022-10-30T02:18:14.745Z,58.72
2022-10-30T02:20:42.358Z,58.96
2022-10-30T02:23:13.568Z,59.20
2022-10-30T02:25:40.914Z,59.37
2022-10-30T02:28:10.287Z,59.45
2022-10-30T02:30:38.440Z,59.48
2022-10-30T02:33:05.722Z,59.49
2022-10-30T02:35:35.401Z,59.53
2022-10-30T02:38:03.782Z,59.50
2022-10-30T02:40:31.249Z,59.64
2022-10-30T02:42:58.519Z,59.29
2022-10-30T02:45:26.181Z,58.66
2022-10-30T02:47:53.506Z,59.05
2022-10-30T02:50:20.828Z,58.83
2022-10-30T02:52:48.245Z,58.95
2022-10-30T02:55:15.545Z,58.41
2022-10-30T02:57:43.186Z,58.46
2022-10-30T03:00:11.471Z,58.39
2022-10-30T03:02:38.824Z,58.36
2022-10-30T03:05:06.422Z,58.40
2022-10-30T03:07:34.131Z,58.40
2022-10-30T03:10:01.561Z,58.25
2022-10-30T03:12:30.224Z,58.30
2022-10-30T03:14:58.728Z,58.34
2022-10-30T03:17:27.231Z,58.42
2022-10-30T03:19:54.578Z,58.31
2022-10-30T03:22:21.975Z,58.26
2022-10-30T03:24:49.286Z,58.27
2022-10-30T03:27:17.835Z,58.21
2022-10-30T03:29:45.163Z,58.17
2022-10-30T03:32:13.327Z,58.21
2022-10-30T03:34:47.341Z,58.15
2022-10-30T03:37:14.628Z,58.20
2022-10-30T03:39:41.857Z,58.08
2022-10-30T03:42:09.080Z,58.18
2022-10-30T03:44:36.353Z,58.18
2022-10-30T03:47:04.750Z,58.08
2022-10-30T03:49:36.157Z,58.11
2022-10-30T03:52:09.008Z,57.95
2022-10-30T03:54:36.286Z,57.98
2022-10-30T03:57:03.585Z,58.06
2022-10-30T03:59:39.722Z,58.11
2022-10-30T04:02:33.046Z,57.95
2022-10-30T04:05:00.249Z,57.96
2022-10-30T04:07:27.491Z,58.18
2022-10-30T04:09:54.738Z,57.98
2022-10-30T04:12:22.039Z,57.94
2022-10-30T04:14:51.037Z,57.86
2022-10-30T04:17:19.119Z,57.87
2022-10-30T04:19:47.025Z,57.76
2022-10-30T04:22:14.371Z,57.95
2022-10-30T04:24:41.658Z,57.91
2022-10-30T04:27:09.428Z,57.90
2022-10-30T04:29:37.919Z,57.92
2022-10-30T04:34:39.422Z,57.93
2022-10-30T04:37:07.837Z,57.71
2022-10-30T04:39:35.310Z,57.88
2022-10-30T04:42:12.564Z,57.66
2022-10-30T04:44:41.127Z,57.68
2022-10-30T04:47:09.436Z,57.73
2022-10-30T04:49:36.806Z,57.78
2022-10-30T04:52:04.209Z,57.75
2022-10-30T04:54:32.159Z,57.77
2022-10-30T04:56:59.621Z,57.87
2022-10-30T05:01:57.057Z,57.99
2022-10-30T05:04:24.414Z,57.76
2022-10-30T05:06:52.003Z,57.73
2022-10-30T05:09:19.477Z,57.57
2022-10-30T05:11:47.140Z,57.61
2022-10-30T05:14:14.462Z,57.52
2022-10-30T05:16:42.547Z,57.41
2022-10-30T05:21:38.167Z,58.34
2022-10-30T05:24:05.841Z,58.34
2022-10-30T05:29:07.993Z,57.50
2022-10-30T05:34:07.425Z,57.56
2022-10-30T05:36:37.488Z,57.53
2022-10-30T05:39:04.904Z,57.32
2022-10-30T05:41:39.154Z,57.42
2022-10-30T05:44:06.562Z,57.48
2022-10-30T05:46:34.582Z,57.37
2022-10-30T05:49:18.134Z,57.38
2022-10-30T05:51:45.887Z,57.41
2022-10-30T05:54:13.219Z,57.45
2022-10-30T05:56:53.647Z,57.23
2022-10-30T05:59:20.953Z,57.29
2022-10-30T06:01:48.315Z,57.15
2022-10-30T06:04:15.681Z,57.21
2022-10-30T06:06:43.616Z,57.16
2022-10-30T06:09:10.839Z,57.14
2022-10-30T06:11:47.885Z,57.19
2022-10-30T06:14:16.206Z,57.18
2022-10-30T06:16:50.177Z,57.19
2022-10-30T06:19:38.003Z,57.12
2022-10-30T06:22:23.746Z,57.25
2022-10-30T06:24:58.472Z,57.03
2022-10-30T06:28:02.189Z,57.10
2022-10-30T06:30:31.624Z,57.08
2022-10-30T06:33:04.313Z,56.98
2022-10-30T06:35:33.302Z,57.02
2022-10-30T06:38:01.303Z,56.87
2022-10-30T06:40:30.794Z,56.85
2022-10-30T06:43:16.634Z,56.94
2022-10-30T06:45:50.012Z,56.82
2022-10-30T06:48:18.953Z,56.90
2022-10-30T06:50:57.351Z,56.98
2022-10-30T06:53:26.006Z,56.71
2022-10-30T06:56:03.334Z,56.84
2022-10-30T06:58:50.415Z,56.84
2022-10-30T07:01:47.210Z,56.83
2022-10-30T07:04:17.069Z,56.88
2022-10-30T07:06:45.145Z,56.77
2022-10-30T07:09:12.587Z,56.77
2022-10-30T07:11:45.589Z,56.73
2022-10-30T07:14:19.253Z,56.91
2022-10-30T07:17:09.980Z,56.73
2022-10-30T07:19:38.813Z,56.80
2022-10-30T07:22:06.677Z,56.94
2022-10-30T07:24:35.276Z,56.95
2022-10-30T07:27:25.796Z,56.81
2022-10-30T07:30:31.247Z,56.96
2022-10-30T07:33:23.317Z,56.87
2022-10-30T07:36:04.395Z,56.97
2022-10-30T07:38:57.734Z,56.89
2022-10-30T07:41:50.898Z,56.93
2022-10-30T07:44:40.619Z,56.97
2022-10-30T07:47:17.635Z,56.89
2022-10-30T07:49:50.094Z,56.89
2022-10-30T07:52:18.625Z,56.94
2022-10-30T07:54:48.677Z,56.89
2022-10-30T07:57:42.666Z,56.88
2022-10-30T08:00:24.924Z,57.13
2022-10-30T08:03:03.126Z,55.67
2022-10-30T08:05:56.875Z,53.93
2022-10-30T08:08:29.811Z,53.61
2022-10-30T08:11:14.930Z,53.21
2022-10-30T08:13:42.349Z,52.95
2022-10-30T08:16:09.627Z,53.01
2022-10-30T08:18:38.710Z,53.11
2022-10-30T08:21:06.136Z,53.12
2022-10-30T08:23:33.502Z,52.87
2022-10-30T08:26:06.729Z,54.20
2022-10-30T08:28:37.087Z,53.51
2022-10-30T08:31:08.014Z,53.02
2022-10-30T08:33:53.848Z,52.46
2022-10-30T08:36:36.188Z,51.98
2022-10-30T08:39:04.144Z,52.49
2022-10-30T08:42:09.654Z,51.88
2022-10-30T08:44:43.797Z,51.75
2022-10-30T08:47:28.999Z,51.47
2022-10-30T08:49:56.834Z,52.09
2022-10-30T08:52:28.274Z,51.78
2022-10-30T08:54:57.122Z,51.90
2022-10-30T08:57:27.141Z,51.36
2022-10-30T08:59:57.041Z,51.48
2022-10-30T09:02:43.014Z,51.31
